Time;durP1;ratioP1;P1;durP2;ratioP2;P2;SDS_P1;SDS_P2;PMS_P1;PMS_P2;Temp;Humidity;BMP_temperature;BMP_pressure;BME280_temperature;BME280_humidity;BME280_pressure;Samples;Min_cycle;Max_cycle;Signal;HPM_P1;HPM_P2
2022/04/20 00:01:14;;;;;;;;;20.33;18.67;;;;;14.03;52.24;100439.94;5075322;27;45319;-59
2022/04/20 00:03:40;;;;;;;;;20.00;20.00;;;;;14.00;52.38;100433.97;5076639;27;45460;-59
2022/04/20 00:06:05;;;;;;;;;25.67;18.33;;;;;14.03;52.43;100434.66;5077078;27;45994;-59
2022/04/20 00:08:32;;;;;;;;;20.67;19.33;;;;;14.05;52.49;100437.19;5060011;27;45428;-60
2022/04/20 00:10:58;;;;;;;;;23.33;22.33;;;;;14.06;52.44;100436.28;5071037;28;45444;-60
2022/04/20 00:13:23;;;;;;;;;22.00;21.33;;;;;13.99;52.55;100440.16;5068302;28;45374;-60
2022/04/20 00:15:49;;;;;;;;;26.33;24.67;;;;;13.98;52.12;100430.53;5061887;27;46001;-59
2022/04/20 00:18:14;;;;;;;;;27.00;25.67;;;;;13.97;52.64;100432.34;5055058;28;45514;-59
2022/04/20 00:20:39;;;;;;;;;24.00;21.67;;;;;13.93;52.44;100430.78;5065360;28;45394;-60
2022/04/20 00:23:05;;;;;;;;;24.33;24.00;;;;;13.93;51.67;100430.78;5063486;28;45297;-60
2022/04/20 00:25:30;;;;;;;;;28.00;25.33;;;;;13.90;52.63;100425.66;5059332;28;52722;-60
2022/04/20 00:27:55;;;;;;;;;28.33;27.33;;;;;13.88;52.55;100427.50;5074062;28;45414;-60
2022/04/20 00:30:21;;;;;;;;;22.67;22.67;;;;;13.81;53.07;100424.34;5069621;28;45405;-59
2022/04/20 00:32:46;;;;;;;;;23.33;23.00;;;;;13.76;52.94;100417.59;5059104;28;45568;-60
2022/04/20 00:35:11;;;;;;;;;25.67;25.00;;;;;13.70;52.58;100421.38;5055717;28;46469;-59
2022/04/20 00:37:41;;;;;;;;;29.67;26.33;;;;;13.72;52.93;100422.16;5066482;28;47038;-60
2022/04/20 00:40:07;;;;;;;;;28.00;27.00;;;;;13.61;53.60;100425.34;5074600;28;45471;-60
2022/04/20 00:42:34;;;;;;;;;31.67;23.67;;;;;13.61;54.10;100424.50;5057731;27;45683;-60
2022/04/20 00:44:59;;;;;;;;;27.33;26.00;;;;;13.59;53.58;100421.06;5056901;28;45582;-60
2022/04/20 00:47:26;;;;;;;;;28.33;26.67;;;;;13.66;53.53;100425.97;5056501;28;45371;-59
2022/04/20 00:49:51;;;;;;;;;28.00;28.00;;;;;13.72;53.24;100406.28;5062893;27;46957;-60
2022/04/20 00:52:17;;;;;;;;;29.00;27.25;;;;;13.75;52.86;100411.41;5075732;27;45599;-60
2022/04/20 00:54:43;;;;;;;;;31.00;29.25;;;;;13.63;53.34;100414.72;5074763;27;45389;-59
2022/04/20 00:57:08;;;;;;;;;33.00;31.00;;;;;13.57;53.70;100412.38;5070703;27;45390;-59
2022/04/20 00:59:36;;;;;;;;;32.25;31.00;;;;;13.57;54.06;100407.94;5057034;27;45543;-58
2022/04/20 01:02:02;;;;;;;;;28.00;26.67;;;;;13.50;53.67;100414.47;5057031;28;45484;-60
2022/04/20 01:04:29;;;;;;;;;32.00;30.75;;;;;13.57;53.43;100410.59;5059704;28;45488;-60
2022/04/20 01:06:59;;;;;;;;;33.75;31.75;;;;;13.55;54.17;100399.25;5055697;28;45533;-59
2022/04/20 01:09:24;;;;;;;;;35.50;31.25;;;;;13.50;54.32;100403.91;5056235;28;45551;-59
2022/04/20 01:11:51;;;;;;;;;37.00;33.50;;;;;13.53;53.59;100397.59;5064050;28;45593;-60
2022/04/20 01:14:17;;;;;;;;;33.67;32.33;;;;;13.55;53.51;100401.88;5063753;27;45537;-60
2022/04/20 01:16:42;;;;;;;;;35.75;33.00;;;;;13.58;53.81;100395.59;5070634;28;45533;-60
2022/04/20 01:19:08;;;;;;;;;35.75;32.25;;;;;13.51;53.86;100408.25;5072131;27;45532;-59
2022/04/20 01:21:33;;;;;;;;;36.00;34.00;;;;;13.54;53.48;100402.81;5059489;28;45596;-59
2022/04/20 01:23:58;;;;;;;;;38.00;33.75;;;;;13.52;53.92;100406.47;5066607;27;46166;-59
2022/04/20 01:26:25;;;;;;;;;33.00;32.25;;;;;13.48;53.67;100406.59;5057426;28;45398;-59
2022/04/20 01:28:53;;;;;;;;;34.00;30.50;;;;;13.44;53.89;100404.22;5055074;28;45405;-59
2022/04/20 01:31:18;;;;;;;;;37.25;35.25;;;;;13.46;54.36;100397.94;5055820;28;45528;-60
2022/04/20 01:33:45;;;;;;;;;31.25;30.25;;;;;13.44;54.42;100405.06;5058854;28;47363;-59
2022/04/20 01:36:13;;;;;;;;;36.75;34.50;;;;;13.44;54.07;100397.13;5075277;27;45503;-60
2022/04/20 01:38:39;;;;;;;;;35.50;33.50;;;;;13.45;54.24;100390.91;5088890;27;45407;-59
2022/04/20 01:41:05;;;;;;;;;40.50;35.50;;;;;13.43;54.08;100390.16;5066702;28;45472;-59
2022/04/20 01:43:31;;;;;;;;;26.50;24.75;;;;;13.43;53.79;100398.09;5056253;28;45909;-60
2022/04/20 01:45:57;;;;;;;;;37.75;34.75;;;;;13.42;54.00;100396.34;5070089;28;45528;-59
2022/04/20 01:48:22;;;;;;;;;40.75;36.75;;;;;13.42;54.58;100399.00;5057838;27;45354;-60
2022/04/20 01:53:32;;;;;;;;;41.25;36.25;;;;;13.32;54.93;100400.38;5063782;28;45433;-60
2022/04/20 01:55:59;;;;;;;;;43.00;36.50;;;;;13.36;54.44;100409.03;5059566;28;45337;-60
2022/04/20 01:58:24;;;;;;;;;29.75;28.25;;;;;13.20;55.02;100414.19;5066263;27;45477;-60
2022/04/20 02:00:49;;;;;;;;;38.75;35.00;;;;;13.13;55.37;100404.84;5056047;28;45648;-60
2022/04/20 02:03:15;;;;;;;;;38.50;35.25;;;;;13.12;54.32;100396.06;5066575;28;46108;-60
2022/04/20 02:05:40;;;;;;;;;48.00;38.25;;;;;13.19;55.00;100404.53;5063932;27;45474;-60
2022/04/20 02:08:06;;;;;;;;;39.50;35.25;;;;;13.19;54.69;100401.88;5071765;28;45399;-59
2022/04/20 02:10:31;;;;;;;;;44.25;38.25;;;;;13.21;55.19;100397.41;5076120;27;45514;-59
2022/04/20 02:12:56;;;;;;;;;39.00;35.50;;;;;13.22;54.40;100399.13;5059554;28;45458;-60
2022/04/20 02:15:22;;;;;;;;;42.50;37.75;;;;;13.25;55.04;100397.19;5062710;28;45652;-59
2022/04/20 02:17:48;;;;;;;;;41.25;38.00;;;;;13.18;55.10;100387.84;5067508;27;45526;-59
2022/04/20 02:20:14;;;;;;;;;49.00;37.50;;;;;13.14;55.25;100390.72;5069292;28;45407;-59
2022/04/20 02:22:39;;;;;;;;;44.00;36.25;;;;;13.14;55.38;100386.28;5097488;27;46429;-59
2022/04/20 02:25:05;;;;;;;;;48.25;39.50;;;;;13.14;55.50;100383.66;5094150;27;45753;-60
2022/04/20 02:27:31;;;;;;;;;47.75;38.50;;;;;13.08;55.05;100380.44;5078793;27;45463;-60
2022/04/20 02:29:56;;;;;;;;;48.50;40.25;;;;;13.06;55.49;100372.63;5078868;27;45624;-59
2022/04/20 02:32:22;;;;;;;;;46.75;40.00;;;;;13.05;54.98;100373.53;5078664;27;46041;-60
2022/04/20 02:34:48;;;;;;;;;50.25;42.00;;;;;13.11;55.11;100370.59;5078614;27;45497;-59
2022/04/20 02:37:13;;;;;;;;;47.25;40.25;;;;;13.10;54.89;100368.88;5083619;27;45439;-60
2022/04/20 02:39:40;;;;;;;;;50.25;38.25;;;;;13.06;55.07;100367.34;5098971;27;45532;-60
2022/04/20 02:42:06;;;;;;;;;48.00;39.75;;;;;13.06;55.64;100359.41;5099033;27;45428;-60
2022/04/20 02:44:32;;;;;;;;;50.75;41.25;;;;;13.02;55.30;100356.06;5098640;27;45492;-60
2022/04/20 02:46:57;;;;;;;;;47.50;39.25;;;;;13.01;55.24;100350.88;5098730;27;45386;-60
2022/04/20 02:49:23;;;;;;;;;49.50;42.50;;;;;13.08;55.69;100354.03;5098859;27;45625;-60
2022/04/20 02:51:48;;;;;;;;;54.75;43.00;;;;;13.12;54.89;100352.97;5098757;27;45499;-60
2022/04/20 02:54:14;;;;;;;;;47.75;39.00;;;;;13.12;55.45;100350.34;5098939;27;45347;-59
2022/04/20 02:56:39;;;;;;;;;55.75;42.50;;;;;13.05;55.45;100350.63;5098973;27;45355;-60
2022/04/20 02:59:04;;;;;;;;;46.75;41.00;;;;;13.10;55.38;100349.53;5099083;27;45338;-60
2022/04/20 03:01:30;;;;;;;;;49.50;41.25;;;;;13.12;55.79;100348.53;5085236;27;45374;-59
2022/04/20 03:03:57;;;;;;;;;49.50;43.00;;;;;13.07;54.86;100318.88;5077106;27;45418;-60
2022/04/20 03:06:22;;;;;;;;;49.75;41.75;;;;;13.15;55.00;100334.34;5077229;27;45465;-60
2022/04/20 03:08:48;;;;;;;;;56.25;43.50;;;;;13.24;54.60;100332.09;5076511;27;45438;-59
2022/04/20 03:11:13;;;;;;;;;50.25;42.00;;;;;13.28;54.98;100335.47;5076914;27;45994;-59
2022/04/20 03:13:39;;;;;;;;;56.25;44.75;;;;;13.27;54.44;100333.72;5077027;27;45591;-59
2022/04/20 03:16:04;;;;;;;;;51.00;42.50;;;;;13.24;54.77;100331.22;5076896;27;45495;-60
2022/04/20 03:18:32;;;;;;;;;52.00;43.00;;;;;13.28;54.95;100329.31;5076418;27;45447;-60
2022/04/20 03:20:59;;;;;;;;;54.00;45.25;;;;;13.24;55.08;100326.81;5068670;27;45923;-60
2022/04/20 03:23:25;;;;;;;;;53.75;44.00;;;;;13.26;55.01;100334.66;5057072;28;45537;-59
2022/04/20 03:25:50;;;;;;;;;49.50;40.25;;;;;13.28;54.64;100339.88;5072545;28;45361;-59
2022/04/20 03:28:15;;;;;;;;;49.50;42.25;;;;;13.31;54.89;100342.38;5064069;28;45524;-59
2022/04/20 03:30:41;;;;;;;;;49.75;40.75;;;;;13.39;54.46;100343.69;5064364;27;45429;-60
2022/04/20 03:33:09;;;;;;;;;52.25;45.00;;;;;13.43;54.27;100354.94;5056384;28;45544;-59
2022/04/20 03:35:36;;;;;;;;;58.25;47.00;;;;;13.38;53.98;100352.56;5072392;28;45739;-59
2022/04/20 03:38:02;;;;;;;;;51.50;42.25;;;;;13.29;54.34;100358.28;5060899;28;45491;-59
2022/04/20 03:40:27;;;;;;;;;51.00;41.75;;;;;13.26;54.65;100355.81;5070561;27;46236;-61
2022/04/20 03:42:53;;;;;;;;;54.00;45.00;;;;;13.25;54.43;100359.34;5082134;27;45444;-59
2022/04/20 03:45:18;;;;;;;;;52.50;44.00;;;;;13.16;54.59;100362.44;5096110;27;45588;-60
2022/04/20 03:47:44;;;;;;;;;54.00;46.00;;;;;13.13;55.28;100365.22;5060396;28;45399;-59
2022/04/20 03:50:09;;;;;;;;;53.50;45.00;;;;;13.01;54.88;100362.28;5074454;27;45535;-60
2022/04/20 03:52:38;;;;;;;;;55.75;46.50;;;;;13.01;55.25;100377.25;5065968;27;45561;-60
2022/04/20 03:55:04;;;;;;;;;58.00;47.75;;;;;12.99;55.14;100374.69;5058031;28;45366;-60
2022/04/20 03:57:29;;;;;;;;;56.00;44.25;;;;;12.88;56.47;100369.09;5056844;28;45542;-59
2022/04/20 03:59:54;;;;;;;;;51.50;43.25;;;;;12.89;55.27;100372.56;5069565;28;45508;-60
2022/04/20 04:02:20;;;;;;;;;57.50;47.50;;;;;12.78;56.23;100362.53;5061336;27;213045;-60
2022/04/20 04:04:45;;;;;;;;;58.00;46.50;;;;;12.81;56.24;100368.53;5062213;28;45487;-60
2022/04/20 04:07:10;;;;;;;;;58.75;47.00;;;;;12.74;56.61;100371.53;5057921;28;45398;-60
2022/04/20 04:09:38;;;;;;;;;55.25;45.25;;;;;12.78;55.49;100359.88;5075317;27;45968;-60
2022/04/20 04:12:03;;;;;;;;;51.50;43.50;;;;;12.81;55.75;100351.81;5068330;27;45444;-60
2022/04/20 04:14:29;;;;;;;;;58.00;46.50;;;;;12.96;55.15;100366.06;5056269;28;45362;-60
2022/04/20 04:16:54;;;;;;;;;53.50;45.00;;;;;13.00;55.74;100352.66;5056881;28;45529;-60
2022/04/20 04:19:20;;;;;;;;;59.00;47.50;;;;;12.97;55.50;100350.13;5058250;28;49025;-60
2022/04/20 04:21:46;;;;;;;;;61.00;47.75;;;;;13.02;55.59;100363.97;5060102;28;45520;-59
2022/04/20 04:24:34;;;;;;;;;55.00;46.00;;;;;13.08;54.62;100361.97;5074487;27;45366;-59
2022/04/20 04:26:59;;;;;;;;;55.50;46.50;;;;;13.11;54.88;100367.97;5056326;28;45546;-60
2022/04/20 04:29:24;;;;;;;;;58.50;48.00;;;;;13.04;54.45;100356.84;5087786;27;45773;-58
2022/04/20 04:31:50;;;;;;;;;57.00;47.50;;;;;13.15;54.80;100366.88;5056952;28;45497;-59
2022/04/20 04:34:15;;;;;;;;;62.25;50.50;;;;;13.19;54.43;100372.84;5069228;27;45511;-58
2022/04/20 04:36:40;;;;;;;;;57.00;47.00;;;;;13.17;54.36;100364.16;5065960;28;45654;-59
2022/04/20 04:39:06;;;;;;;;;55.50;46.00;;;;;13.10;54.27;100365.38;5059377;27;48612;-59
2022/04/20 04:41:31;;;;;;;;;57.50;48.00;;;;;13.07;54.71;100363.75;5072090;27;45461;-59
2022/04/20 04:43:56;;;;;;;;;63.25;50.50;;;;;13.09;54.45;100374.25;5060616;28;45575;-59
2022/04/20 04:49:05;;;;;;;;;56.75;46.50;;;;;13.18;54.33;100374.63;5069454;28;45574;-59
2022/04/20 04:51:31;;;;;;;;;57.75;47.50;;;;;13.10;54.27;100358.31;5074825;27;45406;-59
2022/04/20 04:53:57;;;;;;;;;64.25;51.00;;;;;13.16;54.13;100376.47;5069474;27;45433;-59
2022/04/20 04:56:22;;;;;;;;;58.75;48.00;;;;;13.21;54.25;100381.56;5055482;28;45499;-59
2022/04/20 04:58:47;;;;;;;;;59.00;46.25;;;;;13.16;53.73;100376.47;5061811;28;54495;-59
2022/04/20 05:01:13;;;;;;;;;59.25;47.75;;;;;13.15;54.26;100376.59;5063965;27;45511;-59
2022/04/20 05:03:39;;;;;;;;;63.25;48.00;;;;;13.17;53.97;100375.56;5062939;28;45466;-58
2022/04/20 05:06:04;;;;;;;;;57.00;46.75;;;;;13.13;53.90;100373.16;5056303;28;45517;-59
2022/04/20 05:08:29;;;;;;;;;59.50;48.00;;;;;13.11;53.60;100375.00;5065513;28;46008;-60
2022/04/20 05:10:55;;;;;;;;;61.50;48.75;;;;;13.11;54.09;100380.28;5076076;27;45343;-59
2022/04/20 05:13:20;;;;;;;;;61.00;49.50;;;;;13.07;54.02;100368.19;5057732;27;45294;-61
2022/04/20 05:15:45;;;;;;;;;60.75;50.00;;;;;13.07;53.69;100362.91;5067486;27;45687;-61
2022/04/20 05:18:11;;;;;;;;;58.25;47.50;;;;;13.05;54.12;100369.09;5096602;27;45358;-60
2022/04/20 05:20:36;;;;;;;;;60.25;49.00;;;;;13.02;53.97;100369.25;5086520;27;45473;-61
2022/04/20 05:23:01;;;;;;;;;61.25;48.25;;;;;13.02;54.07;100368.41;5076148;27;45360;-60
2022/04/20 05:25:27;;;;;;;;;58.00;46.75;;;;;13.02;54.11;100378.97;5076273;27;45559;-60
2022/04/20 05:27:52;;;;;;;;;57.50;47.75;;;;;12.96;54.41;100371.34;5075693;27;46121;-60
2022/04/20 05:30:17;;;;;;;;;61.75;49.75;;;;;12.97;54.41;100373.06;5075610;27;45343;-60
2022/04/20 05:32:43;;;;;;;;;56.75;46.50;;;;;13.03;54.70;100376.25;5085353;27;45488;-60
2022/04/20 05:35:09;;;;;;;;;62.00;49.25;;;;;12.94;54.29;100371.41;5096414;27;45414;-60
2022/04/20 05:43:03;;;;;;;;;55.00;46.75;;;;;13.25;53.90;100393.69;5076059;28;45469;-60
2022/04/20 05:45:29;;;;;;;;;61.00;49.50;;;;;13.21;54.08;100392.97;5074950;27;45593;-60
2022/04/20 05:47:54;;;;;;;;;63.75;49.25;;;;;13.17;53.75;100393.22;5075674;27;45588;-59
2022/04/20 05:50:20;;;;;;;;;63.25;50.50;;;;;13.15;53.65;100389.78;5074103;27;45470;-63
2022/04/20 05:52:46;;;;;;;;;57.25;47.75;;;;;13.12;53.69;100379.38;5066814;28;45433;-63
2022/04/20 05:55:12;;;;;;;;;61.50;50.00;;;;;13.09;54.67;100387.47;5056808;28;45635;-63
2022/04/20 05:57:37;;;;;;;;;60.25;48.75;;;;;13.05;54.48;100386.72;5075057;27;46107;-61
2022/04/20 06:00:06;;;;;;;;;60.50;49.25;;;;;13.03;54.35;100384.19;5075242;27;45509;-62
2022/04/20 06:02:34;;;;;;;;;63.00;51.00;;;;;13.02;54.48;100371.88;5070094;27;45712;-62
2022/04/20 06:05:01;;;;;;;;;65.00;53.00;;;;;13.05;54.00;100377.03;5057664;27;45453;-61
2022/04/20 06:07:27;;;;;;;;;60.00;50.00;;;;;13.13;54.29;100381.06;5054986;28;45468;-61
2022/04/20 06:09:52;;;;;;;;;59.00;47.75;;;;;13.13;54.32;100381.94;5054916;28;45458;-60
2022/04/20 06:12:19;;;;;;;;;63.00;51.00;;;;;13.09;54.21;100374.25;5056865;27;45478;-59
2022/04/20 06:14:45;;;;;;;;;61.75;49.25;;;;;13.14;53.27;100381.00;5095539;27;45386;-59
2022/04/20 06:17:10;;;;;;;;;56.25;47.25;;;;;13.16;53.33;100381.75;5088091;27;45392;-59
2022/04/20 06:19:36;;;;;;;;;63.00;49.25;;;;;13.21;53.93;100384.19;5075277;27;45337;-59
2022/04/20 06:22:02;;;;;;;;;61.25;51.00;;;;;13.19;53.14;100379.00;5067215;28;45752;-59
2022/04/20 06:24:27;;;;;;;;;62.25;50.75;;;;;13.19;53.42;100378.13;5086282;27;45373;-58
2022/04/20 06:26:52;;;;;;;;;62.25;49.00;;;;;13.20;53.37;100380.69;5095567;27;45362;-58
2022/04/20 06:29:18;;;;;;;;;62.25;50.50;;;;;13.22;53.04;100373.56;5075462;27;45524;-58
2022/04/20 06:31:45;;;;;;;;;63.00;51.00;;;;;13.27;53.30;100381.25;5063746;27;45945;-58
2022/04/20 06:34:11;;;;;;;;;58.25;48.00;;;;;13.30;52.80;100389.06;5071043;27;45425;-59
2022/04/20 06:36:36;;;;;;;;;60.00;48.50;;;;;13.30;53.31;100380.25;5084995;27;45991;-62
2022/04/20 06:39:02;;;;;;;;;65.25;50.75;;;;;13.36;53.54;100375.53;5081734;27;45381;-59
2022/04/20 06:41:27;;;;;;;;;58.75;48.00;;;;;13.41;53.37;100375.31;5095384;27;45465;-59
2022/04/20 06:43:52;;;;;;;;;63.50;48.50;;;;;13.49;53.02;100381.06;5063486;27;45603;-60
2022/04/20 06:46:18;;;;;;;;;63.25;50.25;;;;;13.54;52.79;100386.09;5058587;28;45412;-59
2022/04/20 06:48:43;;;;;;;;;59.25;49.25;;;;;13.56;52.80;100386.88;5067667;27;45474;-62
2022/04/20 06:51:08;;;;;;;;;61.25;49.50;;;;;13.55;52.25;100379.91;5054413;28;45470;-59
2022/04/20 06:59:15;;;;;;;;;55.00;46.00;;;;;13.63;52.12;100372.44;5057445;28;45493;-59
2022/04/20 07:01:40;;;;;;;;;56.00;47.00;;;;;13.67;51.38;100380.13;5057480;28;45402;-59
2022/04/20 07:04:05;;;;;;;;;62.00;48.00;;;;;13.73;51.41;100388.63;5056688;28;45374;-59
2022/04/20 07:06:31;;;;;;;;;54.25;46.25;;;;;13.73;51.27;100388.63;5057387;28;45449;-59
2022/04/20 07:08:56;;;;;;;;;59.25;49.50;;;;;13.73;51.51;100386.88;5057632;28;45473;-59
2022/04/20 07:11:22;;;;;;;;;62.50;49.25;;;;;13.77;51.22;100379.63;5057491;28;45829;-59
2022/04/20 07:13:47;;;;;;;;;60.00;48.00;;;;;13.84;51.01;100388.97;5057462;28;45423;-59
2022/04/20 07:16:13;;;;;;;;;56.25;45.75;;;;;13.85;50.86;100388.00;5057288;28;45624;-59
2022/04/20 07:18:38;;;;;;;;;54.25;45.50;;;;;13.91;50.91;100393.81;5057376;28;45495;-59
2022/04/20 07:21:04;;;;;;;;;57.00;46.50;;;;;13.91;50.95;100383.25;5057470;28;45354;-59
2022/04/20 07:23:29;;;;;;;;;60.25;49.50;;;;;13.87;50.38;100384.34;5057391;28;45581;-59
2022/04/20 07:25:55;;;;;;;;;58.25;47.50;;;;;13.91;50.28;100393.81;5057398;28;45477;-59
2022/04/20 07:28:20;;;;;;;;;54.75;44.50;;;;;13.90;50.10;100383.34;5057203;28;45473;-59
2022/04/20 07:30:46;;;;;;;;;54.25;44.00;;;;;13.93;50.21;100397.25;5057240;28;45464;-59
2022/04/20 07:33:16;;;;;;;;;53.75;45.00;;;;;13.99;50.09;100396.06;5057133;28;45477;-59
2022/04/20 07:35:44;;;;;;;;;52.00;44.25;;;;;14.00;50.00;100396.94;5057019;28;45641;-59
2022/04/20 07:38:09;;;;;;;;;53.75;46.00;;;;;14.05;49.54;100394.88;5056871;28;45544;-59
2022/04/20 07:40:34;;;;;;;;;53.75;46.25;;;;;14.13;49.62;100397.97;5057011;28;45490;-59
2022/04/20 07:43:00;;;;;;;;;53.50;44.50;;;;;14.21;49.59;100397.56;5057033;28;45579;-59
2022/04/20 07:45:25;;;;;;;;;56.00;45.00;;;;;14.24;48.90;100390.34;5056811;28;45430;-59
2022/04/20 07:47:55;;;;;;;;;59.50;46.75;;;;;14.30;49.27;100394.44;5056621;28;45735;-59
2022/04/20 07:50:23;;;;;;;;;52.00;43.50;;;;;14.30;48.97;100389.16;5057010;28;45446;-59
2022/04/20 07:52:59;;;;;;;;;57.50;46.00;;;;;14.27;48.88;100397.25;5056845;28;45549;-59
2022/04/20 07:55:28;;;;;;;;;56.25;44.75;;;;;14.29;48.54;100393.59;5056677;28;45418;-60
2022/04/20 07:57:56;;;;;;;;;50.50;41.50;;;;;14.40;48.51;100402.72;5056368;28;45533;-59
2022/04/20 08:00:22;;;;;;;;;51.00;43.00;;;;;14.46;49.04;100395.31;5056477;28;45471;-60
2022/04/20 08:02:49;;;;;;;;;52.25;44.50;;;;;14.56;47.86;100408.91;5056475;28;45544;-61
2022/04/20 08:05:16;;;;;;;;;53.50;44.00;;;;;14.63;48.71;100399.72;5055358;28;47087;-59
2022/04/20 08:07:43;;;;;;;;;49.50;39.25;;;;;14.66;47.64;100386.28;5056758;28;45444;-60
2022/04/20 08:10:10;;;;;;;;;44.00;36.00;;;;;14.62;47.34;100378.63;5056758;28;45446;-59
2022/04/20 08:12:40;;;;;;;;;46.50;38.75;;;;;14.72;46.46;100391.28;5056561;28;45370;-60
2022/04/20 08:15:07;;;;;;;;;42.75;38.25;;;;;14.78;47.09;100396.22;5056226;28;45559;-60
2022/04/20 08:17:33;;;;;;;;;49.00;38.75;;;;;14.85;46.69;100391.41;5056819;28;45537;-60
2022/04/20 08:19:59;;;;;;;;;40.25;35.00;;;;;14.90;46.11;100388.50;5056557;28;45446;-59
2022/04/20 08:22:25;;;;;;;;;42.25;35.25;;;;;14.94;46.73;100390.06;5056374;28;45433;-59
2022/04/20 08:24:51;;;;;;;;;41.25;34.75;;;;;14.95;45.74;100386.47;5056561;28;46326;-61
2022/04/20 08:27:17;;;;;;;;;35.25;34.25;;;;;14.96;45.10;100385.50;5056157;28;45431;-59
2022/04/20 08:29:45;;;;;;;;;43.75;35.25;;;;;15.05;45.56;100400.03;5056649;28;45381;-59
2022/04/20 08:32:10;;;;;;;;;37.75;33.75;;;;;15.11;45.38;100397.03;5056540;28;45368;-59
2022/04/20 08:34:36;;;;;;;;;34.50;32.00;;;;;15.14;44.63;100391.56;5056032;28;45561;-59
2022/04/20 08:37:02;;;;;;;;;34.75;32.25;;;;;15.16;44.59;100395.81;5056470;28;45496;-59
2022/04/20 08:39:27;;;;;;;;;36.50;34.00;;;;;15.18;44.57;100404.56;5056258;28;45423;-59
2022/04/20 08:41:54;;;;;;;;;34.00;33.00;;;;;15.20;44.24;100402.63;5056292;28;45477;-59
2022/04/20 08:44:28;;;;;;;;;37.00;32.67;;;;;15.23;43.80;100412.22;5056137;28;45395;-60
2022/04/20 08:47:01;;;;;;;;;36.33;32.67;;;;;15.27;44.51;100408.44;5056020;28;45502;-60
2022/04/20 08:49:26;;;;;;;;;33.50;32.00;;;;;15.31;44.63;100396.72;5056479;28;45398;-60
2022/04/20 08:54:37;;;;;;;;;32.67;32.00;;;;;15.41;44.02;100403.19;5056069;28;45783;-60
2022/04/20 08:57:15;;;;;;;;;29.67;29.00;;;;;15.40;43.31;100396.19;5055732;28;45387;-59
2022/04/20 08:59:42;;;;;;;;;29.00;28.67;;;;;15.44;43.94;100404.81;5056068;28;45496;-60
2022/04/20 09:02:10;;;;;;;;;27.33;27.00;;;;;15.48;43.31;100406.34;5054677;28;45570;-60
2022/04/20 09:04:36;;;;;;;;;33.00;31.67;;;;;15.50;43.00;100407.13;5055861;28;45426;-60
2022/04/20 09:07:03;;;;;;;;;32.33;29.33;;;;;15.46;42.61;100385.22;5055799;28;45434;-60
2022/04/20 09:09:30;;;;;;;;;32.00;29.33;;;;;15.55;43.81;100391.78;5056056;28;45506;-59
2022/04/20 09:11:59;;;;;;;;;33.00;32.33;;;;;15.61;43.77;100399.38;5055623;28;45320;-60
2022/04/20 09:14:25;;;;;;;;;30.00;30.00;;;;;15.65;43.28;100397.41;5055434;28;47644;-59
2022/04/20 09:16:54;;;;;;;;;34.33;29.67;;;;;15.70;43.14;100387.41;5054912;28;45608;-60
2022/04/20 09:19:28;;;;;;;;;25.67;25.00;;;;;15.78;43.16;100394.91;5055421;28;45414;-59
2022/04/20 09:21:53;;;;;;;;;26.00;25.33;;;;;15.83;42.55;100390.19;5055484;28;45574;-59
2022/04/20 09:24:19;;;;;;;;;28.00;28.00;;;;;15.87;42.84;100389.88;5055244;28;45548;-59
2022/04/20 09:26:51;;;;;;;;;30.33;29.33;;;;;15.90;43.17;100391.50;5055540;28;45437;-59
2022/04/20 09:29:17;;;;;;;;;31.33;28.67;;;;;15.90;43.35;100387.06;5055573;28;45461;-59
2022/04/20 09:31:44;;;;;;;;;39.67;35.00;;;;;15.96;42.16;100387.59;5055348;28;45487;-59
2022/04/20 09:34:09;;;;;;;;;32.33;28.00;;;;;15.98;42.16;100389.22;5055260;28;46223;-59
2022/04/20 09:36:45;;;;;;;;;32.00;32.00;;;;;16.05;42.35;100379.94;5055034;28;45501;-59
2022/04/20 09:39:13;;;;;;;;;29.00;29.00;;;;;16.08;42.03;100376.25;5055373;28;45478;-59
2022/04/20 09:41:58;;;;;;;;;28.33;28.33;;;;;16.19;42.64;100384.41;5055182;28;45408;-59
2022/04/20 09:44:24;;;;;;;;;27.67;23.33;;;;;16.09;42.52;100356.72;5054897;28;45498;-59
2022/04/20 09:49:35;;;;;;;;;27.00;27.00;;;;;16.32;42.88;100376.53;5055478;28;45446;-59
2022/04/20 09:52:13;;;;;;;;;26.67;25.33;;;;;16.34;42.16;100370.19;5055396;28;45490;-59
2022/04/20 09:54:48;;;;;;;;;14.00;12.67;;;;;16.38;42.50;100373.47;5055180;28;45733;-59
2022/04/20 09:57:14;;;;;;;;;24.33;22.67;;;;;16.38;42.42;100370.81;5055222;28;45542;-59
2022/04/20 09:59:58;;;;;;;;;24.00;24.00;;;;;16.44;41.61;100364.28;5055143;28;45526;-59
2022/04/20 10:02:23;;;;;;;;;24.67;24.67;;;;;16.49;41.23;100363.03;5054332;28;45570;-60
2022/04/20 10:04:51;;;;;;;;;21.67;21.67;;;;;16.54;40.80;100363.59;5054618;28;45526;-60
2022/04/20 10:07:17;;;;;;;;;27.33;26.33;;;;;16.57;41.79;100362.53;5055085;28;45406;-60
2022/04/20 10:09:43;;;;;;;;;24.33;24.33;;;;;16.62;41.95;100360.44;5054841;28;45374;-60
2022/04/20 10:12:11;;;;;;;;;26.67;23.67;;;;;16.66;41.69;100361.13;5055085;28;45574;-60
2022/04/20 10:17:25;;;;;;;;;27.00;25.33;;;;;16.69;41.08;100363.56;5054813;28;45449;-59
2022/04/20 10:19:53;;;;;;;;;18.33;18.33;;;;;16.70;41.66;100349.34;5054780;28;45500;-59
2022/04/20 10:22:20;;;;;;;;;28.33;24.33;;;;;16.78;41.90;100360.34;5054599;28;45356;-60
2022/04/20 10:24:49;;;;;;;;;25.00;23.67;;;;;16.82;42.17;100364.50;5053976;28;46120;-60
2022/04/20 10:27:52;;;;;;;;;25.00;24.33;;;;;16.79;41.21;100359.38;5054291;28;45402;-58
2022/04/20 10:30:27;;;;;;;;;25.00;25.00;;;;;16.76;41.47;100349.81;5057987;28;45408;-59
2022/04/20 10:33:02;;;;;;;;;25.00;23.33;;;;;16.76;42.17;100346.28;5057598;28;45405;-59
2022/04/20 10:35:28;;;;;;;;;25.00;22.67;;;;;16.83;42.13;100344.13;5057809;28;46051;-59
2022/04/20 10:38:20;;;;;;;;;22.67;22.67;;;;;16.88;42.14;100350.81;5057715;28;45480;-59
2022/04/20 10:41:11;;;;;;;;;25.00;24.00;;;;;16.92;42.32;100346.16;5056581;28;45614;-59
2022/04/20 10:43:42;;;;;;;;;24.00;23.67;;;;;16.93;42.40;100343.41;5057462;28;45383;-59
2022/04/20 10:46:20;;;;;;;;;24.00;22.33;;;;;16.95;42.29;100338.84;5057448;28;45478;-60
2022/04/20 10:48:57;;;;;;;;;21.33;20.67;;;;;16.99;41.81;100337.69;5057207;28;45521;-61
2022/04/20 10:51:30;;;;;;;;;22.67;22.67;;;;;17.03;42.76;100329.50;5056127;28;45386;-62
2022/04/20 10:54:22;;;;;;;;;37.50;33.00;;;;;17.07;43.10;100337.19;5057757;28;45446;-59
2022/04/20 10:56:48;;;;;;;;;33.00;32.00;;;;;17.14;42.98;100330.50;5057323;28;45509;-59
2022/04/20 10:59:14;;;;;;;;;26.33;23.33;;;;;17.19;42.64;100324.88;5057622;28;45432;-60
2022/04/20 11:02:06;;;;;;;;;16.00;16.00;;;;;17.23;43.00;100313.94;5056138;28;45470;-59
2022/04/20 11:04:50;;;;;;;;;20.33;20.33;;;;;17.26;42.50;100309.38;5057963;28;45488;-61
2022/04/20 11:07:17;;;;;;;;;15.00;15.00;;;;;17.33;42.32;100311.50;5057431;28;46234;-60
2022/04/20 11:09:43;;;;;;;;;19.33;18.33;;;;;17.36;42.01;100303.31;5057021;28;45584;-61
2022/04/20 11:21:11;;;;;;;;;17.00;15.67;;;;;17.60;41.57;100302.59;5056609;28;45467;-60
2022/04/20 11:23:59;;;;;;;;;12.00;11.00;;;;;17.64;41.23;100310.22;5057086;28;45477;-58
2022/04/20 11:26:31;;;;;;;;;9.00;9.00;;;;;17.69;40.37;100309.91;5071729;28;45652;-58
2022/04/20 11:29:08;;;;;;;;;17.67;16.33;;;;;17.73;40.00;100297.25;5056931;28;47165;-58
2022/04/20 11:31:58;;;;;;;;;10.00;10.00;;;;;17.80;39.50;100299.41;5056733;28;45497;-60
2022/04/20 11:34:26;;;;;;;;;15.67;15.00;;;;;17.87;39.85;100300.69;5056968;28;45576;-59
2022/04/20 11:36:53;;;;;;;;;10.00;9.00;;;;;17.88;38.24;100283.75;5057853;28;45578;-60
2022/04/20 11:39:21;;;;;;;;;8.00;8.00;;;;;17.94;38.25;100294.91;5081921;27;45464;-59
2022/04/20 11:41:49;;;;;;;;;8.33;7.33;;;;;17.96;38.30;100295.66;5097403;27;45445;-59
2022/04/20 11:44:31;;;;;;;;;8.00;8.00;;;;;18.01;37.69;100288.22;5080875;27;45738;-59